• Join FlightAware (Why Join?)
  • Login
  • US Flag 
03:45AM EDT


 

Airport Tracker/Info


-or-


 

Live Flight TrackerFlight Track Log ✈ FDX1347 ✈ 13-Jun-2013 ✈ KALB - KMEM

Flight Track Log - Related Links

Times and Time Zones

All times are in EDT time to prevent confusion due to time zone crossing. See the FDX1347 flight status page for this flight to view local times or setup timezone preferences in your user account.

Time Position Orientation Groundspeed Altitude Reporting Facility
EDT Latitude Longitude Course Direction KTS MPH feet Rate Location/Type
10:28PM 42.7653 -73.8061 266° West 151 174 1,400  Level Boston Center
10:33PM 42.7260 -74.4800 261° West 394 453 16,600 2,520 Climbing FlightAware
10:34PM 42.7130 -74.5880 261° West 401 461 18,300 2,100 Climbing FlightAware
10:35PM 42.7020 -74.6960 262° West 417 480 19,600 1,920 Climbing FlightAware
10:36PM 42.6950 -74.7930 264° West 422 486 20,900 2,100 Climbing FlightAware
10:36PM 42.6860 -74.9070 264° West 425 489 22,400 2,040 Climbing FlightAware
10:37PM 42.6570 -75.0100 249° West 424 488 23,800 1,800 Climbing FlightAware
10:38PM 42.6090 -75.1020 235° Southwest 428 493 25,000 1,620 Climbing FlightAware
10:38PM 42.5610 -75.1980 236° Southwest 433 498 26,100 1,500 Climbing FlightAware
10:39PM 42.5140 -75.2830 233° Southwest 437 503 27,100 1,380 Climbing FlightAware
10:40PM 42.4560 -75.3840 232° Southwest 441 507 28,100 660 Climbing FlightAware
10:43PM 42.3780 -75.5220 233° Southwest 436 502 29,900 1,740 Climbing FlightAware
10:44PM 42.1710 -75.8830 232° Southwest 395 455 35,400 4,680 Climbing FlightAware
10:45PM 42.1260 -75.9630 233° Southwest 393 452 36,300 1,200 Climbing FlightAware
10:45PM 42.0880 -76.0282 232° Southwest 391 450 36,900 900 Climbing FlightAware ADS-B
10:46PM 42.0485 -76.0957 232° Southwest 393 452 37,400 780 Climbing FlightAware ADS-B
10:46PM 42.0114 -76.1595 232° Southwest 395 455 37,800 540 Climbing FlightAware ADS-B
10:47PM 41.9776 -76.2177 232° Southwest 397 457 38,000 180 Climbing FlightAware ADS-B
10:47PM 41.9431 -76.2781 232° Southwest 398 458 38,000  Level FlightAware ADS-B
10:48PM 41.9033 -76.3466 232° Southwest 403 464 38,000  Level FlightAware ADS-B
10:48PM 41.8686 -76.4060 232° Southwest 406 467 38,000  Level FlightAware ADS-B
10:49PM 41.8309 -76.4694 231° Southwest 407 468 38,000  Level FlightAware ADS-B
10:49PM 41.7955 -76.5309 232° Southwest 408 470 38,000  Level FlightAware ADS-B
10:50PM 41.7565 -76.5967 232° Southwest 411 473 38,000  Level FlightAware ADS-B
10:50PM 41.7180 -76.6628 232° Southwest 412 474 38,000  Level FlightAware ADS-B
10:51PM 41.6806 -76.7249 231° Southwest 414 476 38,000  Level FlightAware ADS-B
10:52PM 41.6449 -76.7853 232° Southwest 415 478 38,000  Level FlightAware ADS-B
10:52PM 41.6076 -76.8477 231° Southwest 417 480 38,000  Level FlightAware ADS-B
10:53PM 41.5714 -76.9104 232° Southwest 419 482 38,000  Level FlightAware ADS-B
10:53PM 41.5271 -76.9896 233° Southwest 421 484 38,000  Level FlightAware ADS-B
10:54PM 41.4944 -77.0630 239° Southwest 422 486 38,000  Level FlightAware ADS-B
10:54PM 41.4635 -77.1294 238° Southwest 422 486 38,000  Level FlightAware ADS-B
10:55PM 41.4280 -77.2039 238° Southwest 424 488 38,000  Level FlightAware ADS-B
10:55PM 41.3948 -77.2718 237° Southwest 424 488 38,000  Level FlightAware ADS-B
10:56PM 41.3560 -77.3510 237° Southwest 424 488 38,000  Level FlightAware
10:57PM 41.3200 -77.4230 236° Southwest 426 490 38,000  Level FlightAware
10:57PM 41.2630 -77.5400 237° Southwest 428 493 38,000  Level FlightAware
10:58PM 41.2190 -77.6300 237° Southwest 431 496 38,000  Level FlightAware
10:59PM 41.1730 -77.7240 237° Southwest 434 499 38,000  Level FlightAware
11:00PM 41.1050 -77.8620 237° Southwest 436 502 38,000  Level FlightAware
11:00PM 41.0630 -77.9470 237° Southwest 436 502 38,000  Level FlightAware
11:01PM 41.0230 -78.0280 237° Southwest 437 503 38,000  Level FlightAware
11:02PM 40.9720 -78.1290 236° Southwest 438 504 38,000  Level FlightAware
11:02PM 40.9280 -78.2180 237° Southwest 438 504 38,000  Level FlightAware
11:03PM 40.8660 -78.3440 237° Southwest 440 506 38,000  Level FlightAware
11:04PM 40.8170 -78.4430 237° Southwest 442 509 38,000  Level FlightAware
11:05PM 40.7740 -78.5310 237° Southwest 442 509 38,000  Level FlightAware
11:06PM 40.7330 -78.6100 236° Southwest 442 509 38,000  Level FlightAware
11:07PM 40.6530 -78.7700 237° Southwest 436 502 38,000  Level FlightAware
11:07PM 40.6060 -78.8650 237° Southwest 432 497 38,000  Level FlightAware
11:08PM 40.5630 -78.9500 236° Southwest 433 498 38,000  Level FlightAware
11:09PM 40.5130 -79.0490 236° Southwest 437 503 38,000  Level FlightAware
11:09PM 40.4650 -79.1420 236° Southwest 435 501 38,000  Level FlightAware
11:10PM 40.4280 -79.2140 236° Southwest 436 502 38,000  Level FlightAware
11:11PM 40.3470 -79.3730 236° Southwest 439 505 38,000  Level FlightAware
11:12PM 40.2910 -79.4830 236° Southwest 436 502 38,000  Level FlightAware
11:13PM 40.2470 -79.5690 236° Southwest 437 503 38,000  Level FlightAware
11:13PM 40.1980 -79.6630 236° Southwest 435 501 38,000  Level FlightAware
11:14PM 40.1510 -79.7520 235° Southwest 434 499 38,000 120 Level FlightAware
11:15PM 40.1060 -79.8410 237° Southwest 436 502 38,200 660 Climbing FlightAware
11:15PM 40.0560 -79.9370 236° Southwest 434 499 39,000 900 Climbing FlightAware
11:16PM 40.0120 -80.0220 236° Southwest 436 502 39,500 720 Climbing FlightAware
11:17PM 39.9640 -80.1130 235° Southwest 438 504 40,000 300 Climbing FlightAware
11:17PM 39.9130 -80.2090 235° Southwest 438 504 40,000  Level FlightAware
11:18PM 39.8740 -80.2830 236° Southwest 438 504 40,000  Level FlightAware
11:19PM 39.8170 -80.3890 235° Southwest 441 507 40,000  Level FlightAware
11:19PM 39.7720 -80.4770 236° Southwest 442 509 40,000  Level FlightAware
11:20PM 39.7160 -80.5800 235° Southwest 445 512 40,000  Level FlightAware
11:21PM 39.6680 -80.6700 235° Southwest 447 514 40,000  Level FlightAware
11:22PM 39.6180 -80.7650 236° Southwest 449 517 40,000  Level FlightAware
11:22PM 39.5700 -80.8520 234° Southwest 451 519 40,000  Level FlightAware
11:23PM 39.5200 -80.9470 236° Southwest 450 518 40,000  Level FlightAware
11:24PM 39.4700 -81.0400 235° Southwest 449 517 40,000  Level FlightAware
11:24PM 39.4170 -81.1360 234° Southwest 448 516 40,000  Level FlightAware
11:25PM 39.4060 -81.1560 235° Southwest 448 516 40,000  Level FlightAware
11:26PM 39.3270 -81.3030 235° Southwest 447 514 40,000  Level FlightAware
11:27PM 39.2720 -81.4050 235° Southwest 445 512 40,000  Level FlightAware
11:27PM 39.2250 -81.4890 234° Southwest 442 509 40,000  Level FlightAware
11:28PM 39.1750 -81.5790 234° Southwest 440 506 40,000  Level FlightAware
11:29PM 39.1250 -81.6690 234° Southwest 439 505 40,000  Level FlightAware
11:29PM 39.0750 -81.7610 235° Southwest 437 503 40,000  Level FlightAware
11:30PM 39.0310 -81.8410 235° Southwest 435 501 40,000  Level FlightAware
11:31PM 38.9890 -81.9170 235° Southwest 434 499 40,000  Level FlightAware
11:31PM 38.9290 -82.0240 234° Southwest 435 501 40,000  Level FlightAware
11:32PM 38.8790 -82.1140 235° Southwest 434 499 40,000  Level FlightAware
11:33PM 38.8290 -82.2040 235° Southwest 434 499 40,000  Level FlightAware
11:33PM 38.7860 -82.2810 234° Southwest 434 499 40,000  Level FlightAware
11:34PM 38.7320 -82.3750 234° Southwest 432 497 40,000  Level FlightAware
11:35PM 38.6800 -82.4680 234° Southwest 432 497 40,000  Level FlightAware
11:36PM 38.6360 -82.5450 234° Southwest 432 497 40,000  Level FlightAware
11:36PM 38.5830 -82.6380 234° Southwest 433 498 40,000  Level FlightAware
11:37PM 38.5370 -82.7180 234° Southwest 433 498 40,000  Level FlightAware
11:38PM 38.4890 -82.8030 234° Southwest 433 498 40,000  Level FlightAware
11:38PM 38.4340 -82.9010 234° Southwest 435 501 40,000  Level FlightAware
11:39PM 38.3850 -82.9860 234° Southwest 435 501 40,000  Level FlightAware
11:40PM 38.3525 -83.0416 233° Southwest 436 502 40,000  Level FlightAware ADS-B
11:40PM 38.2969 -83.1393 234° Southwest 440 506 40,000  Level FlightAware ADS-B
11:41PM 38.2591 -83.2041 233° Southwest 440 506 40,000  Level FlightAware ADS-B
11:41PM 38.2128 -83.2837 234° Southwest 441 507 40,000  Level FlightAware ADS-B
11:42PM 38.1400 -83.4100 234° Southwest 449 517 40,000  Level FlightAware
11:43PM 38.1028 -83.4722 233° Southwest 451 519 40,000  Level FlightAware ADS-B
11:44PM 38.0490 -83.5620 233° Southwest 451 519 40,000  Level FlightAware
11:44PM 37.9956 -83.6563 234° Southwest 454 522 40,000  Level FlightAware ADS-B
11:45PM 37.9392 -83.7531 234° Southwest 458 527 40,000  Level FlightAware ADS-B
11:46PM 37.8910 -83.8349 233° Southwest 459 528 40,000  Level FlightAware ADS-B
11:46PM 37.8521 -83.8992 233° Southwest 457 526 40,000  Level FlightAware ADS-B
11:47PM 37.7928 -83.9997 233° Southwest 457 526 40,000  Level FlightAware ADS-B
11:48PM 37.7539 -84.0656 233° Southwest 454 522 40,000  Level FlightAware ADS-B
11:48PM 37.6900 -84.1740 233° Southwest 454 522 40,000  Level FlightAware
11:49PM 37.6508 -84.2396 233° Southwest 455 524 40,000  Level FlightAware ADS-B
11:49PM 37.6095 -84.3074 232° Southwest 456 525 40,000  Level FlightAware ADS-B
11:50PM 37.5648 -84.3838 234° Southwest 456 525 40,000  Level FlightAware ADS-B
11:51PM 37.5258 -84.4472 232° Southwest 456 525 40,000  Level FlightAware ADS-B
11:51PM 37.4842 -84.5170 233° Southwest 455 524 40,000  Level FlightAware ADS-B
11:52PM 37.4451 -84.5824 233° Southwest 454 522 40,000  Level FlightAware ADS-B
11:52PM 37.4068 -84.6455 233° Southwest 454 522 40,000  Level FlightAware ADS-B
11:53PM 37.3683 -84.7086 232° Southwest 454 522 40,000  Level FlightAware ADS-B
11:53PM 37.3299 -84.7734 233° Southwest 453 521 40,000  Level FlightAware ADS-B
11:54PM 37.2895 -84.8382 232° Southwest 452 520 40,000  Level FlightAware ADS-B
11:54PM 37.2498 -84.9053 233° Southwest 454 522 40,000  Level FlightAware ADS-B
11:55PM 37.2114 -84.9680 232° Southwest 454 522 40,000  Level FlightAware ADS-B
11:55PM 37.1730 -85.0307 232° Southwest 455 524 40,000  Level FlightAware ADS-B
11:56PM 37.1326 -85.0957 232° Southwest 456 525 40,000  Level FlightAware ADS-B
11:56PM 37.0931 -85.1608 233° Southwest 457 526 40,000  Level FlightAware ADS-B
11:57PM 37.0507 -85.2303 233° Southwest 459 528 40,000  Level FlightAware ADS-B
11:57PM 37.0067 -85.3019 232° Southwest 460 529 40,000  Level FlightAware ADS-B
11:58PM 36.9690 -85.3610 231° Southwest 460 529 40,000  Level FlightAware
11:59PM 36.9051 -85.4660 233° Southwest 460 529 40,000  Level FlightAware ADS-B
11:59PM 36.8645 -85.5284 231° Southwest 462 532 40,000  Level FlightAware ADS-B
11:59PM 36.8355 -85.5615 222° Southwest 475 547 40,000  Level FlightAware ADS-B
12:00AM 36.8047 -85.5865 213° Southwest 487 560 40,000  Level FlightAware ADS-B
12:00AM 36.7616 -85.6070 201° Southwest 498 573 40,000  Level FlightAware ADS-B
12:01AM 36.6910 -85.6184 187° South 503 579 40,000  Level FlightAware ADS-B
12:01AM 36.6639 -85.6237 189° South 493 567 40,000  Level FlightAware ADS-B
12:01AM 36.6241 -85.6412 199° South 485 558 40,000  Level FlightAware ADS-B
12:01AM 36.5948 -85.6644 212° Southwest 476 548 40,000  Level FlightAware ADS-B
12:02AM 36.5140 -85.8020 234° Southwest 452 520 40,000  Level FlightAware
12:03AM 36.4720 -85.9030 243° Southwest 452 520 40,000  Level FlightAware
12:04AM 36.4322 -85.9971 242° Southwest 452 520 40,000  Level FlightAware ADS-B
12:05AM 36.3910 -86.0930 242° Southwest 452 520 40,000  Level FlightAware
12:05AM 36.3650 -86.1530 242° Southwest 453 521 40,000  Level FlightAware
12:07AM 36.2259 -86.4778 242° Southwest 459 528 40,000  Level FlightAware ADS-B
12:08AM 36.1946 -86.5501 242° Southwest 464 534 40,000  Level FlightAware ADS-B
12:09AM 36.1534 -86.6471 242° Southwest 469 540 40,000  Level FlightAware ADS-B
12:09AM 36.1260 -86.7198 245° Southwest 468 539 40,000 -120 Level FlightAware ADS-B
12:09AM 36.1097 -86.7690 248° West 463 533 39,900 -1,080 Descending FlightAware ADS-B
12:10AM 36.0853 -86.8453 248° West 464 534 39,100 -1,440 Descending FlightAware ADS-B
12:10AM 36.0707 -86.8920 249° West 464 534 38,700 -1,080 Descending FlightAware ADS-B
12:11AM 36.0489 -86.9386 240° Southwest 470 541 38,400 -960 Descending FlightAware ADS-B
12:11AM 36.0415 -86.9515 235° Southwest 470 541 38,300 -1,140 Descending FlightAware ADS-B
12:11AM 36.0157 -86.9845 226° Southwest 476 548 38,000 -1,020 Descending FlightAware ADS-B
12:11AM 36.0048 -86.9966 222° Southwest 480 552 37,900 -1,800 Descending FlightAware ADS-B
12:11AM 35.9867 -87.0108 212° Southwest 489 563 37,500 -2,220 Descending FlightAware ADS-B
12:11AM 35.9677 -87.0248 211° Southwest 500 575 37,200 -1,920 Descending FlightAware ADS-B
12:12AM 35.9476 -87.0354 203° Southwest 508 585 36,900 -2,220 Descending FlightAware ADS-B
12:12AM 35.9260 -87.0448 199° South 517 595 36,500 -2,100 Descending FlightAware ADS-B
12:12AM 35.9012 -87.0518 193° South 524 603 36,200 -600 Descending FlightAware ADS-B
12:13AM 35.7990 -87.0637 185° South 533 613 36,000 -360 Descending FlightAware ADS-B
12:13AM 35.7741 -87.0692 190° South 526 605 35,900 -1,080 Descending FlightAware ADS-B
12:13AM 35.7448 -87.0807 198° South 518 596 35,600 -1,440 Descending FlightAware ADS-B
12:13AM 35.7171 -87.0971 206° Southwest 509 586 35,300 -1,200 Descending FlightAware ADS-B
12:13AM 35.6849 -87.1253 215° Southwest 490 564 35,000 -720 Descending FlightAware ADS-B
12:14AM 35.6707 -87.1427 225° Southwest 482 555 35,000  Level FlightAware ADS-B
12:14AM 35.6457 -87.1832 233° Southwest 468 539 35,000  Level FlightAware ADS-B
12:14AM 35.6303 -87.2204 243° Southwest 456 525 35,000  Level FlightAware ADS-B
12:15AM 35.6177 -87.2742 254° West 444 511 35,000  Level FlightAware ADS-B
12:15AM 35.6130 -87.3710 267° West 438 504 35,000  Level FlightAware
12:16AM 35.6110 -87.4830 269° West 438 504 35,000  Level FlightAware
12:17AM 35.6080 -87.6010 268° West 437 503 35,000 -360 Level FlightAware
12:18AM 35.6050 -87.7270 268° West 430 495 34,500 -420 Descending FlightAware
12:18AM 35.6030 -87.8160 268° West 430 495 34,400 -120 Descending FlightAware
12:19AM 35.6000 -87.8930 267° West 430 495 34,400 -2,580 Level FlightAware
12:20AM 35.5970 -88.0360 269° West 433 498 30,800 -2,580 Descending FlightAware
12:20AM 35.5950 -88.1140 268° West 433 498 30,800 -2,160 Level FlightAware
12:21AM 35.5920 -88.2280 268° West 447 514 27,900 -2,160 Descending FlightAware
12:22AM 35.5890 -88.3060 267° West 447 514 27,900  Level FlightAware
12:22AM 35.5860 -88.4140 268° West 447 514 27,900  Level FlightAware
12:23AM 35.5840 -88.4920 268° West 447 514 27,900  Level FlightAware
12:24AM 35.5810 -88.5980 268° West 447 514 27,900 -5,100 Level FlightAware
12:25AM 35.3444 -88.6794 268° West 421 484 18,000 -5,700 Descending Memphis Center
12:26AM 35.2664 -88.7753 225° Southwest 403 464 15,800 -2,220 Descending Memphis Center
12:27AM 35.1861 -88.8758 226° Southwest 392 451 13,600 -2,220 Descending Memphis Center
12:28AM 35.1164 -88.9658 227° Southwest 376 433 11,400 -1,740 Descending Memphis Center
12:29AM 35.0483 -89.0508 226° Southwest 362 417 10,200 -1,200 Descending Memphis Center
12:30AM 35.0347 -89.1447 260° West 306 352 9,000 -1,320 Descending Memphis Center
12:31AM 35.0378 -89.2386 272° West 282 325 7,600 -1,500 Descending Memphis Center
12:32AM 35.0386 -89.3325 271° West 277 319 6,100 -900 Descending Memphis Center
12:33AM 35.0433 -89.4236 274° West 271 312 5,800 -720 Descending Memphis Center
12:35AM 35.0508 -89.6139 273° West 276 318 4,000 -900 Descending Memphis Center
12:36AM 35.0536 -89.7078 272° West 276 318 3,100 -600 Descending Memphis Center
12:37AM 35.0561 -89.7889 272° West 259 298 2,800 -660 Descending Memphis Center
12:38AM 35.0564 -89.8600 270° West 223 257 1,800 -960 Descending Memphis Center
12:39AM 35.0500 -89.9000 259° West 155 178 1,000 -840 Descending KMEM
12:43AM 35.0333 -89.9667 270° West  Level FlightAware Approximate
12:50AM 35.0424 -89.9767 270° West  Level Estimated
12:51AM 35.0424 -89.9767 270° West  Level Estimated
12:52AM 35.0424 -89.9767 270° West  Level Estimated
12:53AM 35.0424 -89.9767 270° West  Level Estimated
12:54AM 35.0424 -89.9767 270° West  Level Estimated
12:55AM 35.0424 -89.9767 270° West  Level Estimated
12:56AM 35.0424 -89.9767 270° West  Level Estimated
12:57AM 35.0424 -89.9767 270° West  Level Estimated
12:58AM 35.0424 -89.9767 270° West  Level Estimated